createdAt,value
2019-02-10T00:00:47.565Z,8.10
2019-02-10T00:01:47.570Z,7.10
2019-02-10T00:02:47.594Z,5.80
2019-02-10T00:03:47.648Z,5.50
2019-02-10T00:04:47.741Z,6.50
2019-02-10T00:05:47.772Z,4.90
2019-02-10T00:06:47.879Z,4.40
2019-02-10T00:07:47.921Z,3.80
2019-02-10T00:08:47.903Z,7.40
2019-02-10T00:09:47.959Z,7.00
2019-02-10T00:10:48.042Z,4.20
2019-02-10T00:11:48.057Z,9.30
2019-02-10T00:12:48.177Z,6.50
2019-02-10T00:13:48.167Z,6.60
2019-02-10T00:14:48.280Z,8.90
2019-02-10T00:15:48.371Z,6.70
2019-02-10T00:16:48.363Z,8.80
2019-02-10T00:17:48.404Z,9.40
2019-02-10T00:18:48.486Z,4.70
2019-02-10T00:19:48.480Z,4.20
2019-02-10T00:20:48.627Z,6.20
2019-02-10T00:21:48.566Z,8.90
2019-02-10T00:22:48.687Z,3.20
2019-02-10T00:23:48.685Z,5.40
2019-02-10T00:24:48.744Z,10.90
2019-02-10T00:25:48.829Z,10.00
2019-02-10T00:26:48.840Z,4.30
2019-02-10T00:27:48.907Z,7.50
2019-02-10T00:28:48.931Z,7.40
2019-02-10T00:29:49.047Z,4.80
2019-02-10T00:30:49.116Z,11.10
2019-02-10T00:31:49.088Z,8.50
2019-02-10T00:32:49.138Z,6.90
2019-02-10T00:33:49.193Z,5.60
2019-02-10T00:34:49.325Z,7.20
2019-02-10T00:35:49.360Z,13.30
2019-02-10T00:36:49.421Z,6.60
2019-02-10T00:37:49.402Z,5.50
2019-02-10T00:38:49.488Z,5.50
2019-02-10T00:39:49.507Z,6.60
2019-02-10T00:40:49.676Z,9.90
2019-02-10T00:41:49.674Z,4.50
2019-02-10T00:42:49.747Z,6.20
2019-02-10T00:43:49.735Z,7.00
2019-02-10T00:44:49.769Z,5.60
2019-02-10T00:45:49.814Z,7.70
2019-02-10T00:46:49.868Z,6.40
2019-02-10T00:47:49.961Z,6.70
2019-02-10T00:48:50.054Z,5.70
2019-02-10T00:49:50.033Z,8.30
2019-02-10T00:50:50.089Z,5.60
2019-02-10T00:51:50.194Z,7.90
2019-02-10T00:52:50.240Z,7.10
2019-02-10T00:53:50.309Z,5.90
2019-02-10T00:54:50.299Z,8.10
2019-02-10T00:55:50.359Z,3.70
2019-02-10T00:56:50.451Z,4.30
2019-02-10T00:57:50.509Z,8.40
2019-02-10T00:58:50.535Z,5.80
2019-02-10T00:59:50.618Z,11.50
2019-02-10T01:00:50.596Z,8.00
2019-02-10T01:01:50.755Z,6.60
2019-02-10T01:02:50.717Z,4.30
2019-02-10T01:03:50.792Z,6.90
2019-02-10T01:04:50.881Z,8.00
2019-02-10T01:05:50.910Z,6.80
2019-02-10T01:06:51.045Z,4.90
2019-02-10T01:07:50.996Z,6.40
2019-02-10T01:08:51.013Z,4.40
2019-02-10T01:09:51.061Z,7.60
2019-02-10T01:10:51.176Z,6.60
2019-02-10T01:11:51.219Z,6.70
2019-02-10T01:12:51.308Z,5.80
2019-02-10T01:13:51.308Z,7.80
2019-02-10T01:14:51.369Z,6.60
2019-02-10T01:15:51.453Z,7.70
2019-02-10T01:16:51.425Z,7.70
2019-02-10T01:17:51.583Z,10.90
2019-02-10T01:18:51.582Z,6.90
2019-02-10T01:19:51.665Z,7.10
2019-02-10T01:20:51.695Z,10.30
2019-02-10T01:21:51.782Z,3.70
2019-02-10T01:22:52.320Z,8.40
2019-02-10T01:23:51.788Z,9.40
2019-02-10T01:24:52.315Z,6.40
2019-02-10T01:25:51.975Z,5.40
2019-02-10T01:26:52.457Z,8.70
2019-02-10T01:27:52.138Z,4.00
2019-02-10T01:28:52.129Z,6.60
2019-02-10T01:29:52.104Z,8.50
2019-02-10T01:30:52.201Z,6.00
2019-02-10T01:31:52.771Z,8.00
2019-02-10T01:32:52.670Z,3.60
2019-02-10T01:33:52.640Z,4.80
2019-02-10T01:34:52.765Z,6.20
2019-02-10T01:35:52.851Z,8.20
2019-02-10T01:36:52.812Z,5.40
2019-02-10T01:37:52.900Z,6.10
2019-02-10T01:38:52.570Z,3.10
2019-02-10T01:39:54.276Z,7.30
2019-02-10T01:40:52.734Z,6.70
2019-02-10T01:41:52.723Z,5.30
2019-02-10T01:42:52.876Z,8.70
2019-02-10T01:43:52.832Z,9.50
2019-02-10T01:44:52.908Z,8.50
2019-02-10T01:45:52.957Z,5.60
2019-02-10T01:46:52.982Z,2.80
2019-02-10T01:47:53.035Z,6.10
2019-02-10T01:48:53.090Z,8.20
2019-02-10T01:49:53.138Z,10.50
2019-02-10T01:50:53.191Z,5.60
2019-02-10T01:51:53.303Z,5.00
2019-02-10T01:52:53.293Z,5.70
2019-02-10T01:53:53.346Z,4.50
2019-02-10T01:54:53.398Z,5.70
2019-02-10T01:55:53.449Z,8.10
2019-02-10T01:56:53.502Z,7.50
2019-02-10T01:57:53.554Z,4.90
2019-02-10T01:58:53.607Z,6.70
2019-02-10T01:59:53.658Z,9.80
2019-02-10T02:00:53.710Z,7.20
2019-02-10T02:01:53.765Z,7.80
2019-02-10T02:02:53.813Z,4.80
2019-02-10T02:03:53.868Z,6.60
2019-02-10T02:04:53.919Z,7.80
2019-02-10T02:05:53.977Z,6.30
2019-02-10T02:06:57.946Z,3.70
2019-02-10T02:07:54.075Z,8.90
2019-02-10T02:08:54.126Z,5.80
2019-02-10T02:09:54.178Z,3.60
2019-02-10T02:10:54.231Z,4.30
2019-02-10T02:11:54.283Z,6.50
2019-02-10T02:12:54.335Z,7.70
2019-02-10T02:13:54.389Z,3.20
2019-02-10T02:14:54.441Z,5.60
2019-02-10T02:15:54.491Z,6.60
2019-02-10T02:16:54.545Z,4.20
2019-02-10T02:17:54.599Z,3.60
2019-02-10T02:18:54.649Z,5.20
2019-02-10T02:19:54.702Z,7.60
2019-02-10T02:20:54.752Z,6.90
2019-02-10T02:21:54.807Z,4.80
2019-02-10T02:22:54.859Z,7.80
2019-02-10T02:23:54.909Z,4.20
2019-02-10T02:24:54.961Z,5.70
2019-02-10T02:25:55.020Z,5.80
2019-02-10T02:26:55.066Z,4.00
2019-02-10T02:27:55.117Z,6.70
2019-02-10T02:28:55.181Z,6.80
2019-02-10T02:29:55.223Z,6.50
2019-02-10T02:30:55.277Z,7.20
2019-02-10T02:31:55.328Z,5.70
2019-02-10T02:32:55.379Z,5.60
2019-02-10T02:33:55.432Z,5.50
2019-02-10T02:34:55.483Z,8.00
2019-02-10T02:35:55.536Z,6.50
2019-02-10T02:36:55.590Z,6.30
2019-02-10T02:37:55.654Z,4.90
2019-02-10T02:38:55.692Z,7.30
2019-02-10T02:39:55.779Z,4.20
2019-02-10T02:40:55.797Z,5.10
2019-02-10T02:41:55.850Z,7.80
2019-02-10T02:42:55.902Z,5.30
2019-02-10T02:43:55.955Z,4.50
2019-02-10T02:44:56.007Z,3.20
2019-02-10T02:45:56.060Z,9.20
2019-02-10T02:46:56.111Z,8.20
2019-02-10T02:47:56.163Z,6.70
2019-02-10T02:48:56.214Z,6.10
2019-02-10T02:49:56.268Z,5.00
2019-02-10T02:50:56.321Z,5.50
2019-02-10T02:51:56.374Z,6.50
2019-02-10T02:52:56.431Z,5.50
2019-02-10T02:53:56.479Z,6.20
2019-02-10T02:54:56.530Z,8.30
2019-02-10T02:55:56.582Z,6.10
2019-02-10T02:56:56.635Z,3.00
2019-02-10T02:57:56.687Z,6.20
2019-02-10T02:58:56.743Z,5.70
2019-02-10T02:59:56.790Z,6.60
2019-02-10T03:00:56.844Z,4.70
2019-02-10T03:01:56.897Z,5.30
2019-02-10T03:02:56.949Z,9.50
2019-02-10T03:03:57.001Z,7.10
2019-02-10T03:04:57.053Z,6.40
2019-02-10T03:05:57.107Z,3.40
2019-02-10T03:06:57.161Z,6.50
2019-02-10T03:07:57.210Z,8.10
2019-02-10T03:08:57.262Z,6.20
2019-02-10T03:09:57.316Z,8.80
2019-02-10T03:10:57.369Z,6.30
2019-02-10T03:11:57.420Z,4.30
2019-02-10T03:12:57.474Z,5.40
2019-02-10T03:13:57.524Z,11.80
2019-02-10T03:14:57.578Z,10.70
2019-02-10T03:15:57.627Z,7.60
2019-02-10T03:16:57.680Z,5.60
2019-02-10T03:17:57.733Z,5.80
2019-02-10T03:18:57.786Z,8.80
2019-02-10T03:19:57.839Z,8.00
2019-02-10T03:20:57.890Z,7.40
2019-02-10T03:21:57.944Z,8.70
2019-02-10T03:22:57.998Z,9.10
2019-02-10T03:23:58.049Z,7.10
2019-02-10T03:24:58.101Z,3.80
2019-02-10T03:25:58.154Z,5.80
2019-02-10T03:26:58.207Z,5.50
2019-02-10T03:27:58.259Z,5.00
2019-02-10T03:28:58.311Z,16.00
2019-02-10T03:29:58.365Z,9.10
2019-02-10T03:30:58.419Z,7.10
2019-02-10T03:31:58.472Z,6.60
2019-02-10T03:32:58.521Z,7.00
2019-02-10T03:33:58.572Z,6.00
2019-02-10T03:34:58.653Z,5.90
2019-02-10T03:35:58.678Z,6.20
2019-02-10T03:36:58.732Z,5.50
2019-02-10T03:37:58.785Z,6.00
2019-02-10T03:38:58.839Z,8.50
2019-02-10T03:39:58.888Z,3.90
2019-02-10T03:40:58.942Z,7.10
2019-02-10T03:41:59.005Z,5.70
2019-02-10T03:42:59.048Z,10.00
2019-02-10T03:43:59.099Z,4.40
2019-02-10T03:44:59.153Z,9.00
2019-02-10T03:45:59.206Z,3.70
2019-02-10T03:46:59.259Z,5.80
2019-02-10T03:47:59.311Z,7.20
2019-02-10T03:48:59.364Z,9.60
2019-02-10T03:49:59.429Z,6.10
2019-02-10T03:50:59.482Z,3.70
2019-02-10T03:51:59.524Z,3.80
2019-02-10T03:52:59.578Z,7.00
2019-02-10T03:53:59.635Z,3.80
2019-02-10T03:54:59.685Z,7.30
2019-02-10T03:55:59.733Z,4.50
2019-02-10T03:56:59.788Z,10.70
2019-02-10T03:57:59.841Z,4.30
2019-02-10T03:58:59.895Z,4.00
2019-02-10T03:59:59.957Z,4.00
2019-02-10T04:00:59.998Z,5.80
2019-02-10T04:02:00.070Z,5.90
2019-02-10T04:03:00.106Z,4.50
2019-02-10T04:04:00.157Z,4.90
2019-02-10T04:05:00.283Z,4.40
2019-02-10T04:06:00.264Z,5.40
2019-02-10T04:07:00.317Z,2.50
2019-02-10T04:08:00.371Z,6.20
2019-02-10T04:09:00.423Z,5.00
2019-02-10T04:10:00.534Z,4.50
2019-02-10T04:11:00.531Z,4.10
2019-02-10T04:12:00.582Z,4.60
2019-02-10T04:13:00.641Z,4.70
2019-02-10T04:14:00.690Z,6.00
2019-02-10T04:15:00.751Z,3.80
2019-02-10T04:16:00.796Z,5.20
2019-02-10T04:17:00.849Z,5.20
2019-02-10T04:18:00.902Z,2.90
2019-02-10T04:19:00.959Z,4.60
2019-02-10T04:20:01.008Z,4.70
2019-02-10T04:21:01.061Z,2.20
2019-02-10T04:22:01.113Z,5.70
2019-02-10T04:23:01.167Z,4.90
2019-02-10T04:24:01.220Z,3.80
2019-02-10T04:25:01.275Z,2.30
2019-02-10T04:26:01.326Z,3.40
2019-02-10T04:27:01.380Z,3.50
2019-02-10T04:28:01.434Z,3.80
2019-02-10T04:29:01.487Z,2.00
2019-02-10T04:30:01.541Z,4.50
2019-02-10T04:31:01.593Z,3.90
2019-02-10T04:32:01.645Z,3.90
2019-02-10T04:33:01.699Z,3.00
2019-02-10T04:34:01.751Z,4.40
2019-02-10T04:35:01.815Z,3.90
2019-02-10T04:36:01.859Z,3.80
2019-02-10T04:37:01.913Z,5.20
2019-02-10T04:38:01.966Z,4.30
2019-02-10T04:39:02.021Z,3.50
2019-02-10T04:40:02.074Z,3.10
2019-02-10T04:41:02.126Z,1.50
2019-02-10T04:42:02.184Z,3.20
2019-02-10T04:43:02.261Z,2.70
2019-02-10T04:44:02.285Z,2.40
2019-02-10T04:45:02.341Z,5.30
2019-02-10T04:46:02.392Z,2.90
2019-02-10T04:47:02.445Z,2.00
2019-02-10T04:48:02.500Z,1.50
2019-02-10T04:49:02.551Z,6.30
2019-02-10T04:50:02.610Z,1.90
2019-02-10T04:51:02.662Z,1.80
2019-02-10T04:52:02.716Z,2.60
2019-02-10T04:53:02.767Z,2.40
2019-02-10T04:54:02.819Z,1.80
2019-02-10T04:55:02.875Z,5.40
2019-02-10T04:56:02.929Z,2.90
2019-02-10T04:57:02.979Z,2.40
2019-02-10T04:58:03.032Z,1.90
2019-02-10T04:59:03.088Z,2.20
2019-02-10T05:00:03.144Z,1.80
2019-02-10T05:01:03.194Z,6.50
2019-02-10T05:02:03.252Z,2.60
2019-02-10T05:03:03.300Z,4.20
2019-02-10T05:04:03.353Z,1.90
2019-02-10T05:05:03.409Z,3.50
2019-02-10T05:06:03.461Z,2.10
2019-02-10T05:07:03.515Z,2.90
2019-02-10T05:08:03.568Z,2.60
2019-02-10T05:09:03.622Z,1.50
2019-02-10T05:10:03.678Z,2.80
2019-02-10T05:11:03.729Z,4.20
2019-02-10T05:12:03.786Z,2.80
2019-02-10T05:13:03.842Z,2.40
2019-02-10T05:14:03.893Z,4.80
2019-02-10T05:15:03.945Z,1.40
2019-02-10T05:16:03.998Z,2.90
2019-02-10T05:17:04.057Z,2.80
2019-02-10T05:18:04.106Z,1.80
2019-02-10T05:19:04.170Z,2.30
2019-02-10T05:20:04.214Z,1.60
2019-02-10T05:21:04.266Z,2.80
2019-02-10T05:22:04.321Z,2.30
2019-02-10T05:23:04.376Z,1.30
2019-02-10T05:24:04.428Z,2.90
2019-02-10T05:25:04.511Z,1.50
2019-02-10T05:26:04.534Z,2.00
2019-02-10T05:27:04.606Z,2.30
2019-02-10T05:28:04.660Z,2.80
2019-02-10T05:29:04.715Z,2.10
2019-02-10T05:30:04.772Z,1.90
2019-02-10T05:31:04.819Z,3.80
2019-02-10T05:32:04.873Z,3.30
2019-02-10T05:33:04.919Z,2.00
2019-02-10T05:34:04.965Z,2.70
2019-02-10T05:35:05.029Z,1.80
2019-02-10T05:36:05.072Z,2.70
2019-02-10T05:37:05.127Z,1.80
2019-02-10T05:38:05.240Z,2.80
2019-02-10T05:39:05.239Z,1.70
2019-02-10T05:40:05.288Z,1.20
2019-02-10T05:41:05.343Z,2.00
2019-02-10T05:42:05.396Z,2.20
2019-02-10T05:43:05.451Z,1.80
2019-02-10T05:44:05.503Z,2.50
2019-02-10T05:45:05.556Z,1.60
2019-02-10T05:46:05.611Z,2.30
2019-02-10T05:47:05.666Z,1.90
2019-02-10T05:48:05.719Z,2.00
2019-02-10T05:49:05.773Z,1.70
2019-02-10T05:50:05.836Z,1.20
2019-02-10T05:51:05.881Z,1.40
2019-02-10T05:52:05.955Z,1.10
2019-02-10T05:53:05.988Z,2.50
2019-02-10T05:54:06.042Z,1.00
2019-02-10T05:55:06.095Z,2.90
2019-02-10T05:56:06.149Z,1.20
2019-02-10T05:57:06.203Z,2.10
2019-02-10T05:58:06.256Z,1.70
2019-02-10T05:59:06.313Z,2.10
2019-02-10T06:00:06.365Z,2.40
2019-02-10T06:01:06.419Z,1.60
2019-02-10T06:02:06.473Z,1.30
2019-02-10T06:03:06.527Z,2.20
2019-02-10T06:04:06.580Z,1.20
2019-02-10T06:05:06.633Z,1.20
2019-02-10T06:06:06.688Z,1.80
2019-02-10T06:07:06.744Z,2.60
2019-02-10T06:08:12.932Z,3.90
2019-02-10T06:09:06.856Z,2.50
2019-02-10T06:10:06.904Z,1.10
2019-02-10T06:11:06.958Z,1.80
2019-02-10T06:12:07.014Z,1.60
2019-02-10T06:13:07.064Z,1.90
2019-02-10T06:14:07.127Z,1.10
2019-02-10T06:15:07.172Z,2.10
2019-02-10T06:16:07.226Z,2.30
2019-02-10T06:17:07.284Z,1.80
2019-02-10T06:18:07.335Z,1.20
2019-02-10T06:19:07.389Z,1.30
2019-02-10T06:20:07.442Z,2.60
2019-02-10T06:21:07.497Z,1.90
2019-02-10T06:22:07.550Z,2.40
2019-02-10T06:23:07.605Z,1.40
2019-02-10T06:24:07.657Z,2.10
2019-02-10T06:25:07.823Z,1.20
2019-02-10T06:26:07.765Z,1.50
2019-02-10T06:27:07.820Z,2.30
2019-02-10T06:28:07.874Z,1.90
2019-02-10T06:29:07.931Z,1.60
2019-02-10T06:30:07.985Z,5.70
2019-02-10T06:31:08.035Z,2.30
2019-02-10T06:32:08.090Z,1.40
2019-02-10T06:33:08.143Z,3.30
2019-02-10T06:34:08.202Z,1.60
2019-02-10T06:35:08.255Z,3.10
2019-02-10T06:36:08.306Z,2.50
2019-02-10T06:37:08.358Z,1.60
2019-02-10T06:38:08.412Z,2.50
2019-02-10T06:39:08.468Z,1.70
2019-02-10T06:40:08.519Z,2.50
2019-02-10T06:41:08.575Z,2.70
2019-02-10T06:42:08.628Z,1.80
2019-02-10T06:43:08.682Z,1.40
2019-02-10T06:44:08.735Z,2.60
2019-02-10T06:45:08.788Z,3.40
2019-02-10T06:46:08.844Z,2.50
2019-02-10T06:47:08.900Z,2.00
2019-02-10T06:48:08.951Z,2.00
2019-02-10T06:49:09.005Z,2.10
2019-02-10T06:50:09.058Z,2.50
2019-02-10T06:51:09.112Z,2.90
2019-02-10T06:52:09.167Z,3.20
2019-02-10T06:53:09.221Z,2.50
2019-02-10T06:54:09.274Z,2.70
2019-02-10T06:55:09.330Z,1.70
2019-02-10T06:56:09.382Z,2.20
2019-02-10T06:57:09.436Z,3.80
2019-02-10T06:58:09.489Z,1.70
2019-02-10T06:59:09.545Z,2.90
2019-02-10T07:00:09.598Z,2.20
2019-02-10T07:01:09.652Z,2.50
2019-02-10T07:02:09.704Z,2.10
2019-02-10T07:03:09.762Z,1.90
2019-02-10T07:04:09.814Z,4.20
2019-02-10T07:05:09.868Z,3.10
2019-02-10T07:06:09.921Z,1.80
2019-02-10T07:07:09.977Z,2.40
2019-02-10T07:08:10.028Z,2.70
2019-02-10T07:09:10.082Z,1.80
2019-02-10T07:10:10.137Z,2.50
2019-02-10T07:11:10.192Z,2.30
2019-02-10T07:12:10.243Z,1.40
2019-02-10T07:13:10.302Z,2.10
2019-02-10T07:14:10.351Z,3.60
2019-02-10T07:15:10.406Z,2.30
2019-02-10T07:16:10.460Z,2.30
2019-02-10T07:17:10.514Z,1.80
2019-02-10T07:18:10.567Z,3.10
2019-02-10T07:19:10.622Z,1.90
2019-02-10T07:20:10.675Z,2.40
2019-02-10T07:21:10.751Z,2.60
2019-02-10T07:22:10.783Z,2.40
2019-02-10T07:23:10.837Z,2.20
2019-02-10T07:24:10.891Z,2.00
2019-02-10T07:25:10.992Z,3.30
2019-02-10T07:26:10.999Z,2.50
2019-02-10T07:27:11.054Z,2.00
2019-02-10T07:28:11.105Z,2.00
2019-02-10T07:29:11.161Z,2.00
2019-02-10T07:30:11.214Z,2.30
2019-02-10T07:31:11.269Z,2.00
2019-02-10T07:32:11.335Z,1.40
2019-02-10T07:33:11.374Z,3.60
2019-02-10T07:34:11.430Z,2.30
2019-02-10T07:35:11.483Z,2.50
2019-02-10T07:36:11.537Z,2.60
2019-02-10T07:37:11.591Z,1.90
2019-02-10T07:38:11.644Z,2.90
2019-02-10T07:39:11.699Z,2.00
2019-02-10T07:40:11.753Z,3.70
2019-02-10T07:41:11.811Z,2.30
2019-02-10T07:42:11.859Z,2.50
2019-02-10T07:43:11.915Z,2.50
2019-02-10T07:44:11.967Z,1.60
2019-02-10T07:45:12.022Z,1.40
2019-02-10T07:46:12.077Z,1.60
2019-02-10T07:47:12.134Z,1.90
2019-02-10T07:48:12.186Z,2.40
2019-02-10T07:49:12.238Z,1.50
2019-02-10T07:50:12.292Z,3.30
2019-02-10T07:51:12.347Z,1.80
2019-02-10T07:52:12.399Z,1.70
2019-02-10T07:53:12.457Z,1.80
2019-02-10T07:54:12.508Z,1.70
2019-02-10T07:55:12.563Z,3.40
2019-02-10T07:56:12.617Z,2.70
2019-02-10T07:57:12.672Z,3.80
2019-02-10T07:58:12.725Z,2.20
2019-02-10T07:59:12.778Z,1.70
2019-02-10T08:00:12.837Z,1.80
2019-02-10T08:01:12.887Z,1.80
2019-02-10T08:02:12.943Z,1.40
2019-02-10T08:03:12.996Z,1.90
2019-02-10T08:04:13.048Z,2.30
2019-02-10T08:05:13.108Z,2.50
2019-02-10T08:06:13.157Z,2.30
2019-02-10T08:07:13.212Z,2.40
2019-02-10T08:08:13.266Z,2.10
2019-02-10T08:09:13.319Z,2.80
2019-02-10T08:10:13.374Z,1.90
2019-02-10T08:11:13.430Z,2.20
2019-02-10T08:12:13.483Z,1.40
2019-02-10T08:13:13.538Z,2.20
2019-02-10T08:14:13.591Z,1.60
2019-02-10T08:15:13.646Z,2.80
2019-02-10T08:16:13.700Z,1.80
2019-02-10T08:17:13.755Z,1.90
2019-02-10T08:18:13.808Z,1.60
2019-02-10T08:19:13.863Z,3.80
2019-02-10T08:20:13.917Z,1.40
2019-02-10T08:21:13.972Z,1.40
2019-02-10T08:22:14.033Z,2.20
2019-02-10T08:23:14.082Z,1.70
2019-02-10T08:24:14.136Z,2.20
2019-02-10T08:25:14.190Z,2.40
2019-02-10T08:26:14.248Z,1.30
2019-02-10T08:27:14.310Z,1.20
2019-02-10T08:28:14.362Z,3.00
2019-02-10T08:29:14.409Z,1.80
2019-02-10T08:30:14.461Z,1.70
2019-02-10T08:31:14.516Z,1.70
2019-02-10T08:32:14.569Z,2.10
2019-02-10T08:33:14.632Z,1.40
2019-02-10T08:34:14.679Z,2.60
2019-02-10T08:35:14.735Z,1.80
2019-02-10T08:36:14.786Z,1.20
2019-02-10T08:37:14.842Z,1.60
2019-02-10T08:38:14.896Z,1.20
2019-02-10T08:39:14.950Z,1.50
2019-02-10T08:40:15.005Z,1.90
2019-02-10T08:41:15.060Z,1.80
2019-02-10T08:42:15.117Z,1.30
2019-02-10T08:43:15.172Z,1.40
2019-02-10T08:44:15.223Z,1.60
2019-02-10T08:45:15.646Z,2.40
2019-02-10T08:46:15.333Z,1.40
2019-02-10T08:47:15.386Z,2.00
2019-02-10T08:48:15.440Z,2.40
2019-02-10T08:49:15.494Z,2.20
2019-02-10T08:50:15.550Z,2.40
2019-02-10T08:51:15.612Z,2.80
2019-02-10T08:52:15.659Z,1.20
2019-02-10T08:53:15.713Z,2.10
2019-02-10T08:54:15.768Z,2.30
2019-02-10T08:55:15.825Z,1.50
2019-02-10T08:56:15.874Z,1.40
2019-02-10T08:57:15.930Z,3.10
2019-02-10T08:58:15.985Z,3.10
2019-02-10T08:59:16.040Z,1.30
2019-02-10T09:00:16.109Z,1.80
2019-02-10T09:01:16.147Z,2.60
2019-02-10T09:02:16.204Z,2.40
2019-02-10T09:03:19.598Z,2.70
2019-02-10T09:04:16.309Z,2.40
2019-02-10T09:05:16.364Z,1.80
2019-02-10T09:06:16.423Z,2.00
2019-02-10T09:07:16.474Z,2.20
2019-02-10T09:08:16.528Z,1.40
2019-02-10T09:09:16.583Z,1.60
2019-02-10T09:10:16.637Z,2.40
2019-02-10T09:11:16.690Z,2.50
2019-02-10T09:12:16.746Z,1.50
2019-02-10T09:13:16.805Z,1.40
2019-02-10T09:14:16.853Z,1.60
2019-02-10T09:15:16.908Z,1.40
2019-02-10T09:16:16.961Z,2.30
2019-02-10T09:17:17.015Z,3.20
2019-02-10T09:18:17.068Z,2.40
2019-02-10T09:19:17.126Z,1.60
2019-02-10T09:20:17.177Z,2.50
2019-02-10T09:21:17.232Z,1.80
2019-02-10T09:22:17.285Z,2.10
2019-02-10T09:23:17.341Z,2.20
2019-02-10T09:24:17.398Z,2.80
2019-02-10T09:25:17.450Z,2.90
2019-02-10T09:26:17.505Z,3.80
2019-02-10T09:27:17.557Z,2.60
2019-02-10T09:28:17.609Z,1.50
2019-02-10T09:29:17.664Z,2.40
2019-02-10T09:30:17.718Z,2.10
2019-02-10T09:31:17.773Z,2.40
2019-02-10T09:32:17.827Z,2.30
2019-02-10T09:33:17.880Z,1.90
2019-02-10T09:34:17.936Z,2.60
2019-02-10T09:35:17.988Z,1.90
2019-02-10T09:36:18.043Z,2.10
2019-02-10T09:37:18.098Z,1.40
2019-02-10T09:38:18.153Z,1.50
2019-02-10T09:39:18.207Z,2.60
2019-02-10T09:40:18.260Z,2.10
2019-02-10T09:41:18.314Z,2.00
2019-02-10T09:42:18.368Z,2.20
2019-02-10T09:43:18.423Z,3.50
2019-02-10T09:44:18.476Z,3.30
2019-02-10T09:45:18.531Z,2.30
2019-02-10T09:46:18.585Z,5.10
2019-02-10T09:47:18.640Z,3.00
2019-02-10T09:48:18.695Z,3.00
2019-02-10T09:49:18.748Z,3.10
2019-02-10T09:50:18.802Z,1.60
2019-02-10T09:51:18.856Z,2.60
2019-02-10T09:52:18.910Z,1.80
2019-02-10T09:53:18.969Z,2.10
2019-02-10T09:54:19.019Z,2.50
2019-02-10T09:55:19.073Z,3.20
2019-02-10T09:56:19.125Z,1.80
2019-02-10T09:57:19.181Z,1.70
2019-02-10T09:58:19.235Z,2.60
2019-02-10T09:59:19.293Z,2.20
2019-02-10T10:00:19.343Z,2.10
2019-02-10T10:01:19.410Z,2.80
2019-02-10T10:02:19.450Z,2.00
2019-02-10T10:03:19.506Z,1.90
2019-02-10T10:04:19.559Z,3.30
2019-02-10T10:05:19.612Z,2.40
2019-02-10T10:06:19.668Z,2.10
2019-02-10T10:07:19.721Z,1.90
2019-02-10T10:08:19.774Z,2.30
2019-02-10T10:09:19.899Z,2.00
2019-02-10T10:10:19.884Z,2.30
2019-02-10T10:11:19.938Z,1.60
2019-02-10T10:12:19.991Z,1.50
2019-02-10T10:13:20.049Z,2.00
2019-02-10T10:14:20.101Z,2.20
2019-02-10T10:15:20.155Z,1.90
2019-02-10T10:16:20.209Z,1.70
2019-02-10T10:17:20.263Z,1.80
2019-02-10T10:18:20.317Z,2.40
2019-02-10T10:19:20.374Z,1.90
2019-02-10T10:20:20.484Z,1.40
2019-02-10T10:21:20.479Z,1.70
2019-02-10T10:22:20.534Z,2.60
2019-02-10T10:23:20.588Z,2.40
2019-02-10T10:24:20.642Z,2.40
2019-02-10T10:25:20.699Z,1.90
2019-02-10T10:26:20.751Z,2.60
2019-02-10T10:27:20.806Z,2.10
2019-02-10T10:28:20.860Z,1.70
2019-02-10T10:29:20.913Z,1.90
2019-02-10T10:30:20.973Z,2.00
2019-02-10T10:31:21.022Z,2.10
2019-02-10T10:32:21.076Z,3.70
2019-02-10T10:33:21.137Z,2.10
2019-02-10T10:34:21.187Z,2.20
2019-02-10T10:35:21.239Z,2.10
2019-02-10T10:36:21.294Z,2.90
2019-02-10T10:37:21.351Z,1.40
2019-02-10T10:38:21.416Z,2.30
2019-02-10T10:39:27.266Z,2.20
2019-02-10T10:40:21.510Z,1.70
2019-02-10T10:41:22.237Z,1.80
2019-02-10T10:42:21.621Z,2.20
2019-02-10T10:43:22.277Z,2.20
2019-02-10T10:44:21.728Z,1.70
2019-02-10T10:45:21.783Z,1.90
2019-02-10T10:46:21.836Z,1.80
2019-02-10T10:47:21.895Z,2.00
2019-02-10T10:48:21.945Z,1.90
2019-02-10T10:49:21.999Z,2.10
2019-02-10T10:50:22.054Z,1.80
2019-02-10T10:51:22.108Z,1.70
2019-02-10T10:52:22.165Z,1.50
2019-02-10T10:53:22.216Z,1.70
2019-02-10T10:54:22.595Z,1.60
2019-02-10T10:55:22.654Z,1.80
2019-02-10T10:56:22.379Z,1.70
2019-02-10T10:57:25.107Z,3.10
2019-02-10T10:58:22.490Z,2.40
2019-02-10T10:59:22.544Z,2.40
2019-02-10T11:00:22.598Z,4.10
2019-02-10T11:01:25.308Z,2.60
2019-02-10T11:02:22.709Z,2.40
2019-02-10T11:03:22.761Z,2.80
2019-02-10T11:04:22.815Z,2.40
2019-02-10T11:05:22.871Z,2.00
2019-02-10T11:06:22.923Z,1.50
2019-02-10T11:07:23.013Z,2.20
2019-02-10T11:08:23.073Z,3.00
2019-02-10T11:09:23.087Z,1.70
2019-02-10T11:10:23.140Z,2.10
2019-02-10T11:11:23.196Z,2.10
2019-02-10T11:12:23.249Z,2.30
2019-02-10T11:13:23.302Z,1.90
2019-02-10T11:14:23.357Z,1.80
2019-02-10T11:15:23.412Z,1.80
2019-02-10T11:16:23.465Z,1.90
2019-02-10T11:17:23.520Z,3.70
2019-02-10T11:18:23.579Z,1.90
2019-02-10T11:19:23.629Z,1.60
2019-02-10T11:20:23.683Z,3.10
2019-02-10T11:21:23.737Z,1.80
2019-02-10T11:22:23.791Z,2.30
2019-02-10T11:23:23.846Z,1.70
2019-02-10T11:24:28.766Z,2.40
2019-02-10T11:25:23.953Z,1.50
2019-02-10T11:26:24.009Z,2.60
2019-02-10T11:27:24.063Z,1.80
2019-02-10T11:28:24.116Z,2.80
2019-02-10T11:29:24.171Z,1.90
2019-02-10T11:30:24.226Z,3.10
2019-02-10T11:31:24.280Z,1.80
2019-02-10T11:32:24.333Z,2.10
2019-02-10T11:33:24.388Z,1.50
2019-02-10T11:34:24.443Z,1.70
2019-02-10T11:35:24.498Z,2.00
2019-02-10T11:36:24.550Z,2.60
2019-02-10T11:37:26.900Z,1.90
2019-02-10T11:38:24.660Z,1.70
2019-02-10T11:39:24.713Z,1.70
2019-02-10T11:40:24.768Z,5.00
2019-02-10T11:41:24.821Z,1.10
2019-02-10T11:42:24.876Z,2.10
2019-02-10T11:43:25.378Z,2.80
2019-02-10T11:44:24.989Z,4.40
2019-02-10T11:45:25.040Z,1.70
2019-02-10T11:46:25.095Z,3.00
2019-02-10T11:47:25.148Z,1.80
2019-02-10T11:48:25.204Z,2.00
2019-02-10T11:49:25.291Z,2.60
2019-02-10T11:50:25.313Z,2.40
2019-02-10T11:51:25.367Z,1.70
2019-02-10T11:52:25.420Z,2.30
2019-02-10T11:53:25.476Z,2.10
2019-02-10T11:54:25.529Z,2.10
2019-02-10T11:55:25.835Z,1.40
2019-02-10T11:56:25.637Z,1.50
2019-02-10T11:57:25.693Z,1.20
2019-02-10T11:58:25.749Z,1.60
2019-02-10T11:59:25.803Z,1.20
2019-02-10T12:00:25.858Z,1.20
2019-02-10T12:01:25.911Z,1.80
2019-02-10T12:02:25.965Z,1.30
2019-02-10T12:03:26.020Z,1.20
2019-02-10T12:04:26.074Z,1.20
2019-02-10T12:05:26.129Z,1.80
2019-02-10T12:06:26.184Z,0.90
2019-02-10T12:07:26.238Z,1.20
2019-02-10T12:08:35.001Z,4.20
2019-02-10T12:09:26.363Z,1.10
2019-02-10T12:10:26.403Z,2.30
2019-02-10T12:11:26.457Z,1.70
2019-02-10T12:12:26.511Z,1.20
2019-02-10T12:13:26.568Z,1.10
2019-02-10T12:14:27.027Z,1.60
2019-02-10T12:15:26.677Z,1.60
2019-02-10T12:16:26.731Z,1.50
2019-02-10T12:17:26.786Z,0.90
2019-02-10T12:18:26.842Z,1.10
2019-02-10T12:19:26.898Z,1.30
2019-02-10T12:20:26.953Z,1.00
2019-02-10T12:21:27.007Z,1.40
2019-02-10T12:22:27.063Z,1.10
2019-02-10T12:23:27.120Z,0.80
2019-02-10T12:24:27.173Z,1.00
2019-02-10T12:25:27.228Z,2.40
2019-02-10T12:26:27.284Z,0.60
2019-02-10T12:27:27.339Z,1.60
2019-02-10T12:28:27.395Z,3.10
2019-02-10T12:29:27.448Z,1.30
2019-02-10T12:30:27.513Z,1.50
2019-02-10T12:31:27.821Z,1.10
2019-02-10T12:32:27.615Z,2.30
2019-02-10T12:33:27.671Z,1.00
2019-02-10T12:34:27.728Z,2.10
2019-02-10T12:35:27.782Z,1.40
2019-02-10T12:36:27.835Z,1.50
2019-02-10T12:37:32.426Z,1.60
2019-02-10T12:38:27.946Z,1.50
2019-02-10T12:39:28.002Z,1.00
2019-02-10T12:40:28.058Z,0.70
2019-02-10T12:41:28.123Z,0.80
2019-02-10T12:42:28.166Z,1.10
2019-02-10T12:43:28.221Z,1.20
2019-02-10T12:44:28.276Z,1.10
2019-02-10T12:45:28.332Z,1.30
2019-02-10T12:46:28.396Z,1.60
2019-02-10T12:47:28.442Z,1.00
2019-02-10T12:48:28.501Z,1.30
2019-02-10T12:49:28.553Z,1.40
2019-02-10T12:50:28.606Z,0.90
2019-02-10T12:51:28.663Z,1.20
2019-02-10T12:52:28.714Z,0.90
2019-02-10T12:53:28.771Z,0.50
2019-02-10T12:54:28.824Z,0.80
2019-02-10T12:55:28.884Z,0.90
2019-02-10T12:56:28.935Z,0.60
2019-02-10T12:57:28.989Z,0.50
2019-02-10T12:58:29.045Z,0.70
2019-02-10T12:59:29.099Z,0.40
2019-02-10T13:00:29.153Z,0.40
2019-02-10T13:01:38.130Z,0.40
2019-02-10T13:02:29.874Z,0.40
2019-02-10T13:04:29.373Z,0.70
2019-02-10T13:05:29.479Z,0.40
2019-02-10T13:06:30.121Z,1.50
2019-02-10T13:07:29.576Z,0.50
2019-02-10T13:08:29.592Z,0.40
2019-02-10T13:09:30.368Z,0.60
2019-02-10T13:10:30.373Z,0.30
2019-02-10T13:11:30.430Z,0.70
2019-02-10T13:12:30.308Z,0.80
2019-02-10T13:13:29.867Z,0.70
2019-02-10T13:14:29.920Z,1.10
2019-02-10T13:15:29.975Z,0.20
2019-02-10T13:16:30.031Z,0.20
2019-02-10T13:17:30.084Z,1.50
2019-02-10T13:18:30.140Z,1.80
2019-02-10T13:19:30.194Z,0.80
2019-02-10T13:20:30.248Z,0.30